createdAt,value
2023-02-02T00:01:52.445Z,3.17
2023-02-02T00:04:33.790Z,3.01
2023-02-02T00:07:05.035Z,2.98
2023-02-02T00:09:33.869Z,2.84
2023-02-02T00:12:02.225Z,2.85
2023-02-02T00:14:30.604Z,2.92
2023-02-02T00:16:59.023Z,2.79
2023-02-02T00:19:30.416Z,2.87
2023-02-02T00:21:59.438Z,2.75
2023-02-02T00:24:27.582Z,2.77
2023-02-02T00:26:59.791Z,2.76
2023-02-02T00:29:30.877Z,2.71
2023-02-02T00:31:58.975Z,2.66
2023-02-02T00:34:27.319Z,2.53
2023-02-02T00:36:55.641Z,2.58
2023-02-02T00:39:26.310Z,2.59
2023-02-02T00:41:55.317Z,2.47
2023-02-02T00:44:42.095Z,2.50
2023-02-02T00:47:10.572Z,2.62
2023-02-02T00:49:38.783Z,2.40
2023-02-02T00:52:07.068Z,2.50
2023-02-02T00:54:35.498Z,2.55
2023-02-02T00:57:03.984Z,2.62
2023-02-02T00:59:32.840Z,2.60
2023-02-02T01:02:02.189Z,2.58
2023-02-02T01:04:30.925Z,2.48
2023-02-02T01:06:59.116Z,2.54
2023-02-02T01:09:27.699Z,2.45
2023-02-02T01:11:55.985Z,2.47
2023-02-02T01:14:24.392Z,2.59
2023-02-02T01:16:52.860Z,2.58
2023-02-02T01:19:21.042Z,2.44
2023-02-02T01:21:49.236Z,2.67
2023-02-02T01:24:17.862Z,2.67
2023-02-02T01:26:46.062Z,2.64
2023-02-02T01:29:15.752Z,2.70
2023-02-02T01:31:44.205Z,2.72
2023-02-02T01:34:12.359Z,2.67
2023-02-02T01:36:41.033Z,2.71
2023-02-02T01:39:09.583Z,2.74
2023-02-02T01:41:41.148Z,2.57
2023-02-02T01:44:47.123Z,2.66
2023-02-02T01:47:15.986Z,2.68
2023-02-02T01:49:45.385Z,2.62
2023-02-02T01:52:17.248Z,2.51
2023-02-02T01:54:50.967Z,2.62
2023-02-02T01:57:23.466Z,2.67
2023-02-02T01:59:55.512Z,2.75
2023-02-02T02:02:27.892Z,2.53
2023-02-02T02:04:57.024Z,2.43
2023-02-02T02:07:25.425Z,2.59
2023-02-02T02:09:53.782Z,2.58
2023-02-02T02:12:22.339Z,2.41
2023-02-02T02:15:10.297Z,2.31
2023-02-02T02:17:42.082Z,2.61
2023-02-02T02:20:59.312Z,2.53
2023-02-02T02:24:07.917Z,2.71
2023-02-02T02:27:00.791Z,2.64
2023-02-02T02:30:00.227Z,2.77
2023-02-02T02:32:48.951Z,2.70
2023-02-02T02:35:35.087Z,2.72
2023-02-02T02:38:16.898Z,2.71
2023-02-02T02:40:55.795Z,2.68
2023-02-02T02:43:33.431Z,2.66
2023-02-02T02:46:02.784Z,2.60
2023-02-02T02:48:31.944Z,2.55
2023-02-02T02:51:08.346Z,2.51
2023-02-02T02:53:38.044Z,2.44
2023-02-02T02:56:45.072Z,2.50
2023-02-02T02:59:33.938Z,2.62
2023-02-02T03:02:17.696Z,2.52
2023-02-02T03:04:59.008Z,2.51
2023-02-02T03:07:38.408Z,2.53
2023-02-02T03:10:09.863Z,2.50
2023-02-02T03:12:48.081Z,2.50
2023-02-02T03:15:17.623Z,2.46
2023-02-02T03:17:49.366Z,2.59
2023-02-02T03:20:18.237Z,2.55
2023-02-02T03:22:46.570Z,2.58
2023-02-02T03:25:16.050Z,2.78
2023-02-02T03:27:44.764Z,2.76
2023-02-02T03:30:14.204Z,2.87
2023-02-02T03:32:42.594Z,2.81
2023-02-02T03:35:11.054Z,2.76
2023-02-02T03:37:39.291Z,2.74
2023-02-02T03:40:07.875Z,2.84
2023-02-02T03:42:36.455Z,2.85
2023-02-02T03:45:05.275Z,2.89
2023-02-02T03:47:33.523Z,2.89
2023-02-02T03:50:02.253Z,2.86
2023-02-02T03:52:30.367Z,2.78
2023-02-02T03:54:58.482Z,2.72
2023-02-02T03:57:26.949Z,2.59
2023-02-02T03:59:55.143Z,2.47
2023-02-02T04:02:23.471Z,2.61
2023-02-02T04:04:51.983Z,2.41
2023-02-02T04:07:20.051Z,2.38
2023-02-02T04:09:48.432Z,2.49
2023-02-02T04:12:16.964Z,2.40
2023-02-02T04:14:45.112Z,2.32
2023-02-02T04:17:13.318Z,2.37
2023-02-02T04:19:42.271Z,2.32
2023-02-02T04:22:10.434Z,2.18
2023-02-02T04:24:38.533Z,2.20
2023-02-02T04:27:06.990Z,2.23
2023-02-02T04:29:35.242Z,2.20
2023-02-02T04:32:03.465Z,2.18
2023-02-02T04:34:31.915Z,2.00
2023-02-02T04:37:00.042Z,2.02
2023-02-02T04:39:28.602Z,2.06
2023-02-02T04:41:57.003Z,2.15
2023-02-02T04:44:25.157Z,2.02
2023-02-02T04:46:53.359Z,2.07
2023-02-02T04:49:22.010Z,1.97
2023-02-02T04:51:50.563Z,2.09
2023-02-02T04:54:18.778Z,2.17
2023-02-02T04:56:47.221Z,2.08
2023-02-02T04:59:15.391Z,2.14
2023-02-02T05:01:43.513Z,2.11
2023-02-02T05:04:12.246Z,2.11
2023-02-02T05:06:40.288Z,2.08
2023-02-02T05:09:08.675Z,2.13
2023-02-02T05:11:39.167Z,2.18
2023-02-02T05:14:07.334Z,2.11
2023-02-02T05:16:35.463Z,2.10
2023-02-02T05:19:03.901Z,2.06
2023-02-02T05:21:32.062Z,2.12
2023-02-02T05:24:01.710Z,2.09
2023-02-02T05:26:30.141Z,1.95
2023-02-02T05:28:58.210Z,2.07
2023-02-02T05:31:26.526Z,2.03
2023-02-02T05:34:16.000Z,1.99
2023-02-02T05:36:44.398Z,2.11
2023-02-02T05:39:12.976Z,2.04
2023-02-02T05:41:41.632Z,1.96
2023-02-02T05:44:12.599Z,2.07
2023-02-02T05:46:41.781Z,2.10
2023-02-02T05:49:14.189Z,2.02
2023-02-02T05:51:48.358Z,2.12
2023-02-02T05:54:20.489Z,2.00
2023-02-02T05:56:50.689Z,1.97
2023-02-02T05:59:19.813Z,2.14
2023-02-02T06:01:48.961Z,2.01
2023-02-02T06:04:17.587Z,1.97
2023-02-02T06:06:47.964Z,1.73
2023-02-02T06:09:16.413Z,2.04
2023-02-02T06:11:45.504Z,1.95
2023-02-02T06:14:13.755Z,2.08
2023-02-02T06:16:41.973Z,1.97
2023-02-02T06:19:10.530Z,2.00
2023-02-02T06:21:39.439Z,2.00
2023-02-02T06:24:08.086Z,2.00
2023-02-02T06:26:36.780Z,1.99
2023-02-02T06:29:05.457Z,2.00
2023-02-02T06:31:34.351Z,1.88
2023-02-02T06:34:02.895Z,1.97
2023-02-02T06:36:31.444Z,2.18
2023-02-02T06:38:59.828Z,2.06
2023-02-02T06:41:28.325Z,2.20
2023-02-02T06:43:56.482Z,2.35
2023-02-02T06:46:24.823Z,2.43
2023-02-02T06:48:53.541Z,2.49
2023-02-02T06:51:21.944Z,2.35
2023-02-02T06:53:50.326Z,2.49
2023-02-02T06:56:18.778Z,2.62
2023-02-02T06:58:47.482Z,2.84
2023-02-02T07:01:15.846Z,2.93
2023-02-02T07:03:49.338Z,2.77
2023-02-02T07:06:26.788Z,2.90
2023-02-02T07:09:01.603Z,2.85
2023-02-02T07:11:34.730Z,2.89
2023-02-02T07:14:06.405Z,2.93
2023-02-02T07:16:34.850Z,2.82
2023-02-02T07:19:03.083Z,2.91
2023-02-02T07:21:36.217Z,2.86
2023-02-02T07:24:05.982Z,2.88
2023-02-02T07:26:36.029Z,3.01
2023-02-02T07:29:04.880Z,3.07
2023-02-02T07:31:35.879Z,3.13
2023-02-02T07:34:05.080Z,3.01
2023-02-02T07:36:33.517Z,2.98
2023-02-02T07:39:04.734Z,2.75
2023-02-02T07:41:37.190Z,2.62
2023-02-02T07:44:06.090Z,2.60
2023-02-02T07:46:34.931Z,2.74
2023-02-02T07:49:04.114Z,2.70
2023-02-02T07:51:32.220Z,2.55
2023-02-02T07:54:01.484Z,2.58
2023-02-02T07:56:29.747Z,2.71
2023-02-02T07:58:58.049Z,2.59
2023-02-02T08:01:28.603Z,2.84
2023-02-02T08:04:03.699Z,2.77
2023-02-02T08:06:37.416Z,2.81
2023-02-02T08:09:08.324Z,2.85
2023-02-02T08:11:38.405Z,3.03
2023-02-02T08:14:07.303Z,2.98
2023-02-02T08:16:35.704Z,3.04
2023-02-02T08:19:04.447Z,3.11
2023-02-02T08:21:34.453Z,3.01
2023-02-02T08:24:04.787Z,3.08
2023-02-02T08:26:33.463Z,3.14
2023-02-02T08:29:06.725Z,3.15
2023-02-02T08:31:38.021Z,2.97
2023-02-02T08:34:06.350Z,3.10
2023-02-02T08:36:37.633Z,3.18
2023-02-02T08:39:08.336Z,3.11
2023-02-02T08:41:37.752Z,3.24
2023-02-02T08:44:09.364Z,3.31
2023-02-02T08:46:40.920Z,3.19
2023-02-02T08:49:13.142Z,3.25
2023-02-02T08:51:42.054Z,3.33
2023-02-02T08:54:10.284Z,3.45
2023-02-02T08:56:38.966Z,3.48
2023-02-02T08:59:07.750Z,3.55
2023-02-02T09:01:36.476Z,3.64
2023-02-02T09:04:13.758Z,3.57
2023-02-02T09:06:43.242Z,3.57
2023-02-02T09:09:14.860Z,3.56
2023-02-02T09:11:44.261Z,3.60
2023-02-02T09:14:14.067Z,3.63
2023-02-02T09:16:43.218Z,3.51
2023-02-02T09:19:12.234Z,3.71
2023-02-02T09:21:40.646Z,3.73
2023-02-02T09:24:13.934Z,3.91
2023-02-02T09:26:43.540Z,3.88
2023-02-02T09:29:15.543Z,4.10
2023-02-02T09:31:48.257Z,4.63
2023-02-02T09:34:16.873Z,4.71
2023-02-02T09:36:45.175Z,4.46
2023-02-02T09:39:14.996Z,4.61
2023-02-02T09:42:20.532Z,4.51
2023-02-02T09:45:03.431Z,4.81
2023-02-02T09:47:44.001Z,4.66
2023-02-02T09:50:30.793Z,4.63
2023-02-02T09:53:07.912Z,4.73
2023-02-02T09:55:48.583Z,4.65
2023-02-02T09:58:29.629Z,4.94
2023-02-02T10:01:14.472Z,4.90
2023-02-02T10:04:08.327Z,5.12
2023-02-02T10:06:42.505Z,5.69
2023-02-02T10:09:11.641Z,5.69
2023-02-02T10:11:51.210Z,5.40
2023-02-02T10:14:35.259Z,5.22
2023-02-02T10:17:22.979Z,5.35
2023-02-02T10:19:57.435Z,5.77
2023-02-02T10:22:29.468Z,6.81
2023-02-02T10:24:58.794Z,7.43
2023-02-02T10:27:46.466Z,7.50
2023-02-02T10:30:29.503Z,7.69
2023-02-02T10:33:16.561Z,7.20
2023-02-02T10:36:11.142Z,7.04
2023-02-02T10:38:57.623Z,6.63
2023-02-02T10:41:41.671Z,6.94
2023-02-02T10:44:31.274Z,6.40
2023-02-02T10:47:04.520Z,6.34
2023-02-02T10:49:37.943Z,6.02
2023-02-02T10:52:17.874Z,5.86
2023-02-02T10:54:57.814Z,5.70
2023-02-02T10:57:48.970Z,5.96
2023-02-02T11:00:26.022Z,5.93
2023-02-02T11:02:54.971Z,5.77
2023-02-02T11:05:44.259Z,5.65
2023-02-02T11:08:19.273Z,5.54
2023-02-02T11:10:52.769Z,5.65
2023-02-02T11:13:31.810Z,5.54
2023-02-02T11:16:14.798Z,5.73
2023-02-02T11:18:44.969Z,5.69
2023-02-02T11:21:24.749Z,5.38
2023-02-02T11:24:06.018Z,5.35
2023-02-02T11:27:02.037Z,5.40
2023-02-02T11:29:42.513Z,5.25
2023-02-02T11:32:30.183Z,5.48
2023-02-02T11:35:04.963Z,5.42
2023-02-02T11:37:38.310Z,5.13
2023-02-02T11:40:28.668Z,5.26
2023-02-02T11:43:00.736Z,5.25
2023-02-02T11:45:41.714Z,5.19
2023-02-02T11:48:19.385Z,5.25
2023-02-02T11:50:56.592Z,5.30
2023-02-02T11:53:29.840Z,5.39
2023-02-02T11:56:11.403Z,5.46
2023-02-02T11:58:51.148Z,5.47
2023-02-02T12:01:36.425Z,5.49
2023-02-02T12:04:26.187Z,5.40
2023-02-02T12:06:54.542Z,5.25
2023-02-02T12:09:25.398Z,5.40
2023-02-02T12:12:27.394Z,5.51
2023-02-02T12:15:23.851Z,5.31
2023-02-02T12:18:02.242Z,5.35
2023-02-02T12:20:45.782Z,5.41
2023-02-02T12:23:28.309Z,5.52
2023-02-02T12:26:20.426Z,5.50
2023-02-02T12:29:07.135Z,5.52
2023-02-02T12:32:06.415Z,5.58
2023-02-02T12:34:40.965Z,5.44
2023-02-02T12:37:09.359Z,5.38
2023-02-02T12:40:14.942Z,5.46
2023-02-02T12:43:24.338Z,5.30
2023-02-02T12:46:28.468Z,5.17
2023-02-02T12:49:38.072Z,5.51
2023-02-02T12:52:35.766Z,5.36
2023-02-02T12:55:25.681Z,5.33
2023-02-02T12:58:26.314Z,5.44
2023-02-02T13:01:22.919Z,5.32
2023-02-02T13:04:10.298Z,5.30
2023-02-02T13:07:03.926Z,5.30
2023-02-02T13:09:35.174Z,5.40
2023-02-02T13:12:09.599Z,5.37
2023-02-02T13:14:42.049Z,5.42
2023-02-02T13:17:21.909Z,5.41
2023-02-02T13:19:54.058Z,5.08
2023-02-02T13:22:28.193Z,5.10
2023-02-02T13:25:01.396Z,5.27
2023-02-02T13:27:31.596Z,5.31
2023-02-02T13:30:20.415Z,5.26
2023-02-02T13:32:53.241Z,5.27
2023-02-02T13:35:32.346Z,5.05
2023-02-02T13:38:21.375Z,5.09
2023-02-02T13:40:51.957Z,5.10
2023-02-02T13:43:48.409Z,5.08
2023-02-02T13:46:19.667Z,4.86
2023-02-02T13:48:48.110Z,4.99
2023-02-02T13:51:25.300Z,5.01
2023-02-02T13:54:10.592Z,4.99
2023-02-02T13:56:41.604Z,4.99
2023-02-02T13:59:34.310Z,5.04
2023-02-02T14:02:05.478Z,5.05
2023-02-02T14:04:34.033Z,5.12
2023-02-02T14:07:05.283Z,5.05
2023-02-02T14:09:37.571Z,5.01
2023-02-02T14:12:09.827Z,5.04
2023-02-02T14:14:45.879Z,4.95
2023-02-02T14:17:16.563Z,4.99
2023-02-02T14:19:58.196Z,5.08
2023-02-02T14:22:48.249Z,4.88
2023-02-02T14:25:43.194Z,4.94
2023-02-02T14:28:32.840Z,5.00
2023-02-02T14:31:17.704Z,4.82
2023-02-02T14:33:47.669Z,4.95
2023-02-02T14:36:17.084Z,4.84
2023-02-02T14:39:16.531Z,4.92
2023-02-02T14:42:20.285Z,5.00
2023-02-02T14:45:22.737Z,4.99
2023-02-02T14:47:54.982Z,4.85
2023-02-02T14:50:37.509Z,4.83
2023-02-02T14:53:19.301Z,4.72
2023-02-02T14:56:07.284Z,4.87
2023-02-02T14:58:43.267Z,4.75
2023-02-02T15:01:24.814Z,4.84
2023-02-02T15:04:16.151Z,4.65
2023-02-02T15:06:45.588Z,4.80
2023-02-02T15:09:20.701Z,4.66
2023-02-02T15:12:11.304Z,4.54
2023-02-02T15:15:10.694Z,4.47
2023-02-02T15:17:42.262Z,4.40
2023-02-02T15:20:29.811Z,4.52
2023-02-02T15:23:16.254Z,4.37
2023-02-02T15:26:07.418Z,4.48
2023-02-02T15:28:48.897Z,4.52
2023-02-02T15:31:39.930Z,4.46
2023-02-02T15:34:34.306Z,4.42
2023-02-02T15:37:07.935Z,4.40
2023-02-02T15:39:42.032Z,4.28
2023-02-02T15:42:55.664Z,4.32
2023-02-02T15:45:45.759Z,4.07
2023-02-02T15:48:31.992Z,4.14
2023-02-02T15:51:30.353Z,4.11
2023-02-02T15:53:59.002Z,4.07
2023-02-02T15:56:32.179Z,4.01
2023-02-02T15:59:02.689Z,3.90
2023-02-02T16:01:45.358Z,4.03
2023-02-02T16:04:31.618Z,4.02
2023-02-02T16:07:06.814Z,4.07
2023-02-02T16:09:42.772Z,3.97
2023-02-02T16:12:20.126Z,3.97
2023-02-02T16:14:53.101Z,3.90
2023-02-02T16:17:21.889Z,4.01
2023-02-02T16:19:59.565Z,3.82
2023-02-02T16:22:31.308Z,3.69
2023-02-02T16:25:06.768Z,3.91
2023-02-02T16:27:37.300Z,3.86
2023-02-02T16:30:09.792Z,3.79
2023-02-02T16:32:42.072Z,3.98
2023-02-02T16:35:36.697Z,3.53
2023-02-02T16:38:36.098Z,3.84
2023-02-02T16:41:10.390Z,3.68
2023-02-02T16:43:43.127Z,3.74
2023-02-02T16:46:14.755Z,3.63
2023-02-02T16:48:45.740Z,3.73
2023-02-02T16:51:25.615Z,3.64
2023-02-02T16:54:02.103Z,3.52
2023-02-02T16:56:34.953Z,3.64
2023-02-02T16:59:15.805Z,3.68
2023-02-02T17:01:51.673Z,3.74
2023-02-02T17:04:28.090Z,3.74
2023-02-02T17:07:05.290Z,3.62
2023-02-02T17:09:41.026Z,3.55
2023-02-02T17:12:30.623Z,3.64
2023-02-02T17:15:05.701Z,3.68
2023-02-02T17:17:34.356Z,3.52
2023-02-02T17:20:05.390Z,3.54
2023-02-02T17:22:37.409Z,3.26
2023-02-02T17:25:06.606Z,3.51
2023-02-02T17:27:35.832Z,3.40
2023-02-02T17:30:05.344Z,3.51
2023-02-02T17:32:33.892Z,3.53
2023-02-02T17:35:07.584Z,3.45
2023-02-02T17:37:35.795Z,3.54
2023-02-02T17:40:05.303Z,3.25
2023-02-02T17:42:34.811Z,3.24
2023-02-02T17:45:03.623Z,3.43
2023-02-02T17:47:32.724Z,3.53
2023-02-02T17:50:01.209Z,3.42
2023-02-02T17:52:29.745Z,3.20
2023-02-02T17:54:58.204Z,3.42
2023-02-02T17:57:26.675Z,3.53
2023-02-02T17:59:55.216Z,3.33
2023-02-02T18:02:23.976Z,3.34
2023-02-02T18:04:52.635Z,3.40
2023-02-02T18:07:21.168Z,3.43
2023-02-02T18:09:49.504Z,3.42
2023-02-02T18:12:18.071Z,3.40
2023-02-02T18:14:46.108Z,3.23
2023-02-02T18:17:14.477Z,3.28
2023-02-02T18:19:45.254Z,3.30
2023-02-02T18:22:13.923Z,3.25
2023-02-02T18:24:42.502Z,3.35
2023-02-02T18:27:11.066Z,3.22
2023-02-02T18:29:39.769Z,3.12
2023-02-02T18:32:09.049Z,3.25
2023-02-02T18:34:37.315Z,3.18
2023-02-02T18:37:05.698Z,3.21
2023-02-02T18:39:34.325Z,3.24
2023-02-02T18:42:04.267Z,3.15
2023-02-02T18:44:34.529Z,3.17
2023-02-02T18:47:03.186Z,2.99
2023-02-02T18:49:32.055Z,3.09
2023-02-02T18:52:00.436Z,3.06
2023-02-02T18:54:29.011Z,3.11
2023-02-02T18:56:57.402Z,2.96
2023-02-02T18:59:25.626Z,3.08
2023-02-02T19:01:55.677Z,2.84
2023-02-02T19:04:24.921Z,2.95
2023-02-02T19:07:12.264Z,2.83
2023-02-02T19:09:40.619Z,3.02
2023-02-02T19:12:13.599Z,3.00
2023-02-02T19:14:43.381Z,2.99
2023-02-02T19:17:14.733Z,3.03
2023-02-02T19:19:43.167Z,3.00
2023-02-02T19:22:24.616Z,3.03
2023-02-02T19:24:57.920Z,3.09
2023-02-02T19:27:27.237Z,3.06
2023-02-02T19:30:00.324Z,2.99
2023-02-02T19:32:32.941Z,2.91
2023-02-02T19:35:01.845Z,2.95
2023-02-02T19:37:32.698Z,2.94
2023-02-02T19:40:15.892Z,2.82
2023-02-02T19:42:47.482Z,2.76
2023-02-02T19:45:31.509Z,2.93
2023-02-02T19:48:02.698Z,2.85
2023-02-02T19:50:39.241Z,2.93
2023-02-02T19:53:28.311Z,2.94
2023-02-02T19:55:57.032Z,2.78
2023-02-02T19:58:37.070Z,2.91
2023-02-02T20:01:17.556Z,2.67
2023-02-02T20:03:46.749Z,2.59
2023-02-02T20:06:26.239Z,2.60
2023-02-02T20:08:55.052Z,2.63
2023-02-02T20:11:32.427Z,2.59
2023-02-02T20:14:09.879Z,2.45
2023-02-02T20:16:42.104Z,2.51
2023-02-02T20:19:26.828Z,2.45
2023-02-02T20:21:55.512Z,2.42
2023-02-02T20:24:27.539Z,2.49
2023-02-02T20:27:00.664Z,2.47
2023-02-02T20:29:42.513Z,2.59
2023-02-02T20:32:21.920Z,2.43
2023-02-02T20:34:51.502Z,2.34
2023-02-02T20:37:24.449Z,2.32
2023-02-02T20:39:57.758Z,2.29
2023-02-02T20:42:26.095Z,2.28
2023-02-02T20:44:54.939Z,2.48
2023-02-02T20:47:23.018Z,2.35
2023-02-02T20:49:51.605Z,2.44
2023-02-02T20:52:24.127Z,2.49
2023-02-02T20:54:52.440Z,2.62
2023-02-02T20:57:21.210Z,2.47
2023-02-02T20:59:57.421Z,2.31
2023-02-02T21:02:27.371Z,2.19
2023-02-02T21:04:55.720Z,2.36
2023-02-02T21:07:24.015Z,2.33
2023-02-02T21:09:52.694Z,2.37
2023-02-02T21:12:25.708Z,2.31
2023-02-02T21:14:54.473Z,2.59
2023-02-02T21:17:23.021Z,2.33
2023-02-02T21:19:51.479Z,2.21
2023-02-02T21:22:20.301Z,2.21
2023-02-02T21:24:48.502Z,2.23
2023-02-02T21:27:16.705Z,2.32
2023-02-02T21:29:45.205Z,2.28
2023-02-02T21:32:13.319Z,2.28
2023-02-02T21:34:41.567Z,2.06
2023-02-02T21:37:15.164Z,2.16
2023-02-02T21:39:49.659Z,2.15
2023-02-02T21:42:20.825Z,2.03
2023-02-02T21:44:56.722Z,2.04
2023-02-02T21:47:40.175Z,2.21
2023-02-02T21:50:20.807Z,2.26
2023-02-02T21:52:49.361Z,2.34
2023-02-02T21:55:37.116Z,2.06
2023-02-02T21:58:19.253Z,2.25
2023-02-02T22:00:47.960Z,2.22
2023-02-02T22:03:27.305Z,2.28
2023-02-02T22:06:30.119Z,2.20
2023-02-02T22:09:06.884Z,2.30
2023-02-02T22:11:46.651Z,2.23
2023-02-02T22:14:32.880Z,2.18
2023-02-02T22:17:01.234Z,2.22
2023-02-02T22:19:37.907Z,1.86
2023-02-02T22:22:09.048Z,1.97
2023-02-02T22:24:37.562Z,2.04
2023-02-02T22:27:23.923Z,1.94
2023-02-02T22:29:58.531Z,1.82
2023-02-02T22:32:26.818Z,2.01
2023-02-02T22:34:55.506Z,1.89
2023-02-02T22:37:23.668Z,1.91
2023-02-02T22:39:51.981Z,1.77
2023-02-02T22:42:20.495Z,1.88
2023-02-02T22:44:48.591Z,1.68
2023-02-02T22:47:16.907Z,1.74
2023-02-02T22:49:45.398Z,1.83
2023-02-02T22:52:13.473Z,1.79
2023-02-02T22:54:41.574Z,1.64
2023-02-02T22:57:09.952Z,1.65
2023-02-02T22:59:38.200Z,1.67
2023-02-02T23:02:06.915Z,1.56
2023-02-02T23:04:35.436Z,1.40
2023-02-02T23:07:03.882Z,1.39
2023-02-02T23:09:35.301Z,1.43
2023-02-02T23:12:03.980Z,1.46
2023-02-02T23:14:32.100Z,1.39
2023-02-02T23:17:00.126Z,1.28
2023-02-02T23:19:28.978Z,1.18
2023-02-02T23:21:57.316Z,1.32
2023-02-02T23:24:25.679Z,1.32
2023-02-02T23:26:54.101Z,1.28
2023-02-02T23:29:22.356Z,1.80
2023-02-02T23:31:50.410Z,1.60
2023-02-02T23:34:19.212Z,1.43
2023-02-02T23:36:47.385Z,1.29
2023-02-02T23:39:15.712Z,1.41
2023-02-02T23:41:44.097Z,1.48
2023-02-02T23:44:12.206Z,1.32
2023-02-02T23:46:41.285Z,1.25
2023-02-02T23:49:10.168Z,1.25
2023-02-02T23:51:38.826Z,1.20
2023-02-02T23:54:07.145Z,1.13
2023-02-02T23:56:35.900Z,1.05
2023-02-02T23:59:04.024Z,1.12
